Time;durP1;ratioP1;P1;durP2;ratioP2;P2;SDS_P1;SDS_P2;PMS_P1;PMS_P2;Temp;Humidity;BMP_temperature;BMP_pressure;BME280_temperature;BME280_humidity;BME280_pressure;Samples;Min_cycle;Max_cycle;Signal;HPM_P1;HPM_P2
2022/08/06 00:02:13;;;;;;;4.72;2.40;;;;;;;22.01;53.69;99869.03;5064998;28;20459;-77
2022/08/06 00:04:38;;;;;;;3.17;1.97;;;;;;;22.00;53.41;99871.84;5069010;28;20263;-77
2022/08/06 00:07:04;;;;;;;1.73;1.60;;;;;;;22.02;53.62;99868.00;5064957;28;20204;-77
2022/08/06 00:09:33;;;;;;;2.40;2.20;;;;;;;22.03;53.21;99880.38;5068914;28;20699;-77
2022/08/06 00:12:00;;;;;;;2.20;1.70;;;;;;;22.09;53.26;99879.75;5064538;28;20216;-77
2022/08/06 00:14:27;;;;;;;3.33;2.40;;;;;;;22.09;53.08;99868.22;5067090;28;20473;-77
2022/08/06 00:16:53;;;;;;;1.90;1.77;;;;;;;21.99;53.38;99872.88;5069333;28;20879;-77
2022/08/06 00:19:19;;;;;;;1.70;1.60;;;;;;;21.92;53.34;99871.84;5068291;28;20464;-77
2022/08/06 00:21:44;;;;;;;2.70;2.07;;;;;;;21.92;53.49;99874.50;5065919;28;20239;-77
2022/08/06 00:24:10;;;;;;;2.70;2.50;;;;;;;21.90;53.57;99863.13;5069065;28;20253;-77
2022/08/06 00:26:37;;;;;;;2.83;2.10;;;;;;;21.91;53.21;99871.00;5069380;28;20848;-77
2022/08/06 00:29:04;;;;;;;2.33;2.10;;;;;;;21.93;53.16;99874.38;5066549;28;20211;-77
2022/08/06 00:31:29;;;;;;;2.90;1.93;;;;;;;21.92;53.18;99878.03;5068376;28;20547;-78
2022/08/06 00:33:55;;;;;;;10.10;2.93;;;;;;;21.94;53.24;99880.53;5069048;28;20983;-77
2022/08/06 00:36:22;;;;;;;2.20;2.00;;;;;;;21.95;53.25;99874.19;5069468;28;20226;-78
2022/08/06 00:38:47;;;;;;;1.90;1.80;;;;;;;21.95;53.16;99871.50;5069451;28;21003;-79
2022/08/06 00:41:14;;;;;;;2.80;1.90;;;;;;;21.97;53.43;99872.19;5071148;28;20453;-77
2022/08/06 00:43:42;;;;;;;4.83;2.83;;;;;;;22.01;53.18;99868.19;5066813;28;20225;-78
2022/08/06 00:46:07;;;;;;;2.67;2.03;;;;;;;22.00;53.40;99866.50;5069787;28;20606;-77
2022/08/06 00:48:33;;;;;;;2.80;2.10;;;;;;;21.96;53.23;99865.19;5068371;28;20545;-77
2022/08/06 00:50:58;;;;;;;3.10;2.70;;;;;;;21.94;53.25;99859.97;5067914;28;20222;-78
2022/08/06 00:53:24;;;;;;;2.83;2.23;;;;;;;21.93;53.51;99862.81;5067663;28;20202;-78
2022/08/06 00:55:49;;;;;;;2.47;2.03;;;;;;;21.86;53.59;99858.13;5058465;28;20218;-78
2022/08/06 00:58:15;;;;;;;2.27;2.07;;;;;;;21.86;53.82;99855.44;5069248;28;20313;-78
2022/08/06 01:00:40;;;;;;;3.20;2.57;;;;;;;21.91;53.48;99854.97;5066300;28;20199;-78
2022/08/06 01:03:07;;;;;;;3.27;2.10;;;;;;;21.94;53.68;99859.97;5065494;28;20482;-77
2022/08/06 01:05:32;;;;;;;2.80;2.40;;;;;;;21.94;53.82;99870.69;5066457;28;20232;-77
2022/08/06 01:07:58;;;;;;;2.13;1.93;;;;;;;21.96;53.67;99873.19;5067425;28;20530;-78
2022/08/06 01:10:23;;;;;;;2.43;2.23;;;;;;;21.96;53.63;99873.19;5062952;28;20345;-77
2022/08/06 01:12:49;;;;;;;1.87;1.70;;;;;;;21.92;53.37;99871.84;5069681;28;20216;-76
2022/08/06 01:15:14;;;;;;;2.27;1.80;;;;;;;21.88;53.58;99877.53;5066028;28;20244;-77
2022/08/06 01:18:09;;;;;;;5.17;2.80;;;;;;;21.87;53.25;99875.00;5069165;28;20344;-77
2022/08/06 01:20:50;;;;;;;2.13;1.93;;;;;;;21.83;53.19;99877.19;5065936;28;20214;-79
2022/08/06 01:23:38;;;;;;;2.37;1.63;;;;;;;21.83;53.14;99877.19;5050356;28;21248;-77
2022/08/06 01:26:31;;;;;;;3.77;2.20;;;;;;;21.82;53.05;99888.06;5066009;28;20484;-78
2022/08/06 01:29:09;;;;;;;2.23;2.07;;;;;;;21.79;52.91;99880.34;5062503;28;20492;-77
2022/08/06 01:31:44;;;;;;;1.93;1.70;;;;;;;21.78;53.15;99886.69;5063511;28;20472;-77
2022/08/06 01:34:16;;;;;;;2.20;2.00;;;;;;;21.80;52.93;99885.53;5061206;28;20581;-78
2022/08/06 01:36:49;;;;;;;3.00;2.10;;;;;;;21.73;53.07;99889.84;5062132;28;20223;-77
2022/08/06 01:39:18;;;;;;;1.70;1.60;;;;;;;21.71;52.93;99893.69;5063186;28;20510;-77
2022/08/06 01:41:47;;;;;;;1.60;1.33;;;;;;;21.67;52.77;99890.50;5061601;28;20509;-77
2022/08/06 01:44:17;;;;;;;1.60;1.40;;;;;;;21.64;52.77;99890.81;5062663;28;20460;-76
2022/08/06 01:46:48;;;;;;;3.23;2.03;;;;;;;21.61;52.78;99896.50;5065972;28;20468;-77
2022/08/06 01:49:17;;;;;;;2.83;1.80;;;;;;;21.55;53.16;99891.78;5066960;28;20463;-77
2022/08/06 01:51:45;;;;;;;1.93;1.40;;;;;;;21.51;53.20;99895.78;5068519;28;20531;-77
2022/08/06 01:54:12;;;;;;;2.30;2.00;;;;;;;21.51;53.25;99896.63;5067186;28;20451;-77
2022/08/06 01:56:41;;;;;;;3.80;1.80;;;;;;;21.52;53.23;99892.09;5064813;28;20548;-77
2022/08/06 01:59:09;;;;;;;1.90;1.60;;;;;;;21.51;53.08;99901.97;5065406;28;20896;-76
2022/08/06 02:01:37;;;;;;;2.10;1.90;;;;;;;21.50;53.13;99902.97;5065586;28;20452;-77
2022/08/06 02:04:04;;;;;;;2.00;1.50;;;;;;;21.46;53.12;99898.94;5060219;28;20979;-76
2022/08/06 02:06:40;;;;;;;2.00;1.70;;;;;;;21.37;53.18;99911.44;5066926;28;20529;-77
2022/08/06 02:09:11;;;;;;;2.17;1.87;;;;;;;21.34;53.37;99900.22;5063956;28;20460;-76
2022/08/06 02:11:39;;;;;;;2.10;1.90;;;;;;;21.35;53.46;99899.19;5067269;28;20615;-76
2022/08/06 02:14:06;;;;;;;2.10;1.90;;;;;;;21.37;53.29;99899.88;5066324;28;20459;-77
2022/08/06 02:16:36;;;;;;;1.90;1.73;;;;;;;21.38;53.49;99906.91;5065023;28;20474;-77
2022/08/06 02:19:04;;;;;;;1.90;1.80;;;;;;;21.40;53.29;99905.75;5064590;28;20468;-76
2022/08/06 02:21:32;;;;;;;2.23;2.03;;;;;;;21.38;53.17;99913.09;5066582;28;20506;-77
2022/08/06 02:24:01;;;;;;;2.67;2.20;;;;;;;21.40;53.21;99911.09;5067521;28;20460;-77
2022/08/06 02:26:28;;;;;;;1.63;1.53;;;;;;;21.42;53.07;99913.63;5065712;28;20498;-77
2022/08/06 02:28:56;;;;;;;3.40;1.80;;;;;;;21.40;53.32;99911.09;5063995;28;20422;-77
2022/08/06 02:31:22;;;;;;;2.27;1.57;;;;;;;21.39;53.38;99914.78;5066265;28;20600;-78
2022/08/06 02:33:47;;;;;;;2.23;2.03;;;;;;;21.40;53.25;99897.75;5068292;28;20845;-76
2022/08/06 02:36:39;;;;;;;2.60;2.40;;;;;;;21.42;53.40;99906.44;5067147;28;20276;-77
2022/08/06 02:39:07;;;;;;;1.70;1.60;;;;;;;21.36;53.41;99908.88;5062598;28;20217;-76
2022/08/06 02:41:42;;;;;;;2.10;1.90;;;;;;;21.30;53.55;99906.84;5064295;28;20475;-77
2022/08/06 02:44:25;;;;;;;1.93;1.70;;;;;;;21.24;53.65;99913.66;5067191;28;20459;-78
2022/08/06 02:47:01;;;;;;;4.40;1.77;;;;;;;21.24;53.61;99911.00;5067361;28;20520;-77
2022/08/06 02:49:31;;;;;;;3.33;2.40;;;;;;;21.19;53.68;99913.31;5059901;28;21162;-78
2022/08/06 02:52:19;;;;;;;2.40;2.20;;;;;;;21.18;53.54;99911.63;5065561;28;20487;-77
2022/08/06 02:54:56;;;;;;;2.07;1.80;;;;;;;21.13;53.68;99917.44;5065245;28;20481;-77
2022/08/06 02:57:26;;;;;;;2.20;1.80;;;;;;;21.12;53.73;99915.78;5039087;28;20508;-77
2022/08/06 02:59:54;;;;;;;1.90;1.70;;;;;;;21.11;53.53;99921.28;5066183;28;20514;-77
2022/08/06 03:02:23;;;;;;;2.10;1.87;;;;;;;21.07;53.55;99915.41;5066956;28;20951;-77
2022/08/06 03:04:50;;;;;;;2.40;2.20;;;;;;;21.06;53.50;99923.56;5065161;28;21215;-76
2022/08/06 03:07:18;;;;;;;2.10;1.97;;;;;;;21.07;53.43;99926.09;5065495;28;20928;-76
2022/08/06 03:09:47;;;;;;;3.50;2.23;;;;;;;21.04;53.47;99921.09;5062969;28;20518;-76
2022/08/06 03:12:15;;;;;;;2.40;2.20;;;;;;;20.97;53.23;99917.34;5069788;28;20503;-76
2022/08/06 03:14:43;;;;;;;1.60;1.50;;;;;;;20.94;53.22;99923.84;5070146;28;21067;-77
2022/08/06 03:17:12;;;;;;;4.27;2.07;;;;;;;20.95;53.21;99922.88;5067768;28;20456;-76
2022/08/06 03:19:39;;;;;;;2.77;1.63;;;;;;;20.90;52.97;99924.31;5063084;28;21114;-76
2022/08/06 03:22:06;;;;;;;4.13;2.70;;;;;;;20.84;53.09;99923.09;5066995;28;20479;-77
2022/08/06 03:24:34;;;;;;;2.50;1.90;;;;;;;20.83;53.05;99925.94;5067843;28;20503;-76
2022/08/06 03:27:01;;;;;;;1.80;1.70;;;;;;;20.86;52.95;99922.97;5070972;28;20523;-76
2022/08/06 03:29:27;;;;;;;3.47;2.20;;;;;;;20.87;52.59;99924.63;5067034;28;20460;-77
2022/08/06 03:31:55;;;;;;;3.53;2.20;;;;;;;20.86;52.36;99928.28;5068685;28;20484;-76
2022/08/06 03:34:21;;;;;;;2.38;2.10;;;;;;;20.87;52.58;99927.28;5066847;28;20504;-77
2022/08/06 03:36:48;;;;;;;1.97;1.73;;;;;;;20.83;52.50;99928.63;5071153;28;20552;-77
2022/08/06 03:39:14;;;;;;;2.50;2.20;;;;;;;20.80;52.53;99929.75;5068307;28;20464;-77
2022/08/06 03:41:40;;;;;;;2.57;1.93;;;;;;;20.77;52.46;99932.75;5068359;28;20453;-76
2022/08/06 03:44:07;;;;;;;3.13;2.23;;;;;;;20.74;52.53;99935.72;5069550;28;20491;-77
2022/08/06 03:46:53;;;;;;;1.90;1.80;;;;;;;20.68;52.90;99939.81;5070564;28;20460;-76
2022/08/06 03:49:28;;;;;;;2.27;2.00;;;;;;;20.67;52.74;99946.16;5066624;28;20448;-77
2022/08/06 03:51:58;;;;;;;2.47;2.27;;;;;;;20.66;52.73;99935.66;5064911;28;20898;-77
2022/08/06 03:54:34;;;;;;;2.00;1.90;;;;;;;20.65;52.63;99944.66;5068461;28;20444;-76
2022/08/06 03:57:08;;;;;;;1.77;1.67;;;;;;;20.65;52.71;99947.31;5068408;28;20451;-76
2022/08/06 03:59:36;;;;;;;4.90;2.50;;;;;;;20.68;52.51;99941.66;5067553;28;20465;-77
2022/08/06 04:02:04;;;;;;;2.50;2.10;;;;;;;20.63;52.57;99946.63;5069034;28;20534;-76
2022/08/06 04:04:31;;;;;;;1.80;1.70;;;;;;;20.63;52.20;99941.28;5068699;28;20468;-77
2022/08/06 04:06:59;;;;;;;2.33;1.80;;;;;;;20.67;52.21;99950.69;5070636;28;20935;-78
2022/08/06 04:09:26;;;;;;;2.17;2.07;;;;;;;20.67;52.31;99951.50;5067367;28;20524;-77
2022/08/06 04:11:53;;;;;;;2.60;1.90;;;;;;;20.67;52.15;99961.34;5069053;28;20506;-77
2022/08/06 04:14:19;;;;;;;1.80;1.70;;;;;;;20.66;52.33;99960.53;5070903;28;20241;-77
2022/08/06 04:16:45;;;;;;;2.50;2.00;;;;;;;20.68;52.16;99965.69;5073200;28;20455;-77
2022/08/06 04:19:13;;;;;;;2.20;2.00;;;;;;;20.69;52.06;99964.72;5069286;28;20546;-76
2022/08/06 04:21:38;;;;;;;3.10;2.27;;;;;;;20.69;52.08;99970.06;5066579;28;20524;-77
2022/08/06 04:24:04;;;;;;;2.10;1.90;;;;;;;20.67;52.11;99972.88;5069149;28;20833;-77
2022/08/06 04:26:31;;;;;;;1.80;1.70;;;;;;;20.68;52.06;99976.38;5068174;28;20221;-77
2022/08/06 04:28:59;;;;;;;1.93;1.80;;;;;;;20.66;51.99;99973.03;5061321;28;20240;-77
2022/08/06 04:31:27;;;;;;;2.70;1.80;;;;;;;20.65;51.88;99972.16;5068346;28;21180;-78
2022/08/06 04:33:55;;;;;;;2.50;2.20;;;;;;;20.60;51.92;99969.13;5044607;28;20617;-77
2022/08/06 04:36:21;;;;;;;2.10;1.90;;;;;;;20.60;51.98;99973.63;5066757;28;20478;-77
2022/08/06 04:38:47;;;;;;;2.10;1.90;;;;;;;20.54;51.79;99973.25;5065266;28;20460;-77
2022/08/06 04:41:13;;;;;;;2.10;2.00;;;;;;;20.49;52.06;99972.00;5067954;28;20471;-77
2022/08/06 04:43:40;;;;;;;3.60;1.83;;;;;;;20.49;52.05;99975.50;5065943;28;20467;-77
2022/08/06 04:46:07;;;;;;;1.70;1.60;;;;;;;20.45;51.92;99983.97;5061758;28;20222;-77
2022/08/06 04:48:34;;;;;;;3.40;1.83;;;;;;;20.38;52.01;99983.72;5068045;28;20482;-77
2022/08/06 04:51:02;;;;;;;3.50;1.90;;;;;;;20.37;51.91;99981.22;5061004;28;20485;-77
2022/08/06 04:53:36;;;;;;;1.97;1.87;;;;;;;20.32;52.03;99984.34;5064211;28;20542;-77
2022/08/06 04:56:01;;;;;;;2.90;2.00;;;;;;;20.35;51.85;99986.69;5068261;28;20975;-77
2022/08/06 04:58:26;;;;;;;2.13;1.93;;;;;;;20.36;51.67;99990.22;5065775;28;20467;-77
2022/08/06 05:00:52;;;;;;;2.03;1.83;;;;;;;20.34;51.66;99990.38;5067492;28;20208;-77
2022/08/06 05:03:17;;;;;;;1.80;1.70;;;;;;;20.38;51.59;99996.25;4889334;28;5002031;-78
2022/08/06 05:05:54;;;;;;;2.20;2.00;;;;;;;20.33;51.58;100000.22;5066711;28;20225;-77
2022/08/06 05:08:20;;;;;;;4.30;2.20;;;;;;;20.28;51.81;100001.63;5068091;28;20223;-77
2022/08/06 05:11:02;;;;;;;2.27;2.07;;;;;;;20.22;51.88;99999.56;5066383;28;20483;-77
2022/08/06 05:13:33;;;;;;;2.40;1.63;;;;;;;20.23;51.54;100001.25;5068734;28;20451;-77
2022/08/06 05:16:03;;;;;;;2.80;2.00;;;;;;;20.19;51.83;100002.53;5067023;28;20481;-77
2022/08/06 05:18:39;;;;;;;2.17;2.00;;;;;;;20.22;51.84;100004.91;5058818;28;20450;-77
2022/08/06 05:21:06;;;;;;;1.83;1.70;;;;;;;20.26;51.68;100006.28;5056916;28;20488;-77
2022/08/06 05:23:39;;;;;;;2.27;1.60;;;;;;;20.29;51.75;100012.16;5059027;28;20876;-76
2022/08/06 05:26:06;;;;;;;2.13;1.63;;;;;;;20.30;51.67;100016.50;5060290;28;20495;-77
2022/08/06 05:28:31;;;;;;;3.83;1.90;;;;;;;20.28;51.73;100015.84;5061756;28;20442;-77
2022/08/06 05:30:57;;;;;;;2.30;2.10;;;;;;;20.29;51.92;100020.16;5059922;28;20834;-76
2022/08/06 05:33:23;;;;;;;2.30;2.10;;;;;;;20.28;51.99;100014.97;5060135;28;20565;-77
2022/08/06 05:35:49;;;;;;;2.50;1.97;;;;;;;20.19;52.05;100018.53;5058037;28;20222;-77
2022/08/06 05:38:14;;;;;;;2.87;1.97;;;;;;;20.12;52.14;100018.31;5060904;28;20473;-78
2022/08/06 05:40:40;;;;;;;1.90;1.80;;;;;;;20.14;52.05;100020.81;5055846;28;20228;-77
2022/08/06 05:43:06;;;;;;;3.67;2.10;;;;;;;20.13;52.41;100027.16;5062073;28;20200;-78
2022/08/06 05:45:33;;;;;;;2.50;1.90;;;;;;;20.13;52.21;100027.97;5060419;28;20278;-76
2022/08/06 05:48:03;;;;;;;1.63;1.50;;;;;;;20.16;51.94;100026.84;5058259;28;20477;-77
2022/08/06 05:50:34;;;;;;;1.90;1.80;;;;;;;20.16;52.22;100027.69;5059340;28;20452;-77
2022/08/06 05:53:03;;;;;;;1.90;1.57;;;;;;;20.24;52.04;100034.94;5057986;28;20514;-77
2022/08/06 05:55:43;;;;;;;2.40;2.20;;;;;;;20.32;51.75;100029.69;5056919;28;20481;-77
2022/08/06 05:58:23;;;;;;;4.00;2.47;;;;;;;20.40;51.71;100040.47;5051311;28;20476;-77
2022/08/06 06:00:51;;;;;;;2.23;1.60;;;;;;;20.58;51.01;100042.31;5057981;28;20472;-77
2022/08/06 06:03:19;;;;;;;1.60;1.50;;;;;;;20.83;50.18;100040.75;5053622;28;21210;-77
2022/08/06 06:05:45;;;;;;;2.53;1.77;;;;;;;21.28;48.95;100037.94;5058972;28;20508;-78
2022/08/06 06:08:10;;;;;;;2.80;1.77;;;;;;;22.09;46.99;100036.75;5056855;28;20460;-77
2022/08/06 06:10:39;;;;;;;1.80;1.70;;;;;;;22.23;46.39;100046.03;5055543;28;20459;-77
2022/08/06 06:13:06;;;;;;;3.63;2.33;;;;;;;21.99;47.07;100044.06;5056971;28;20716;-77
2022/08/06 06:15:40;;;;;;;1.93;1.60;;;;;;;21.78;47.85;100047.13;5057407;28;20477;-77
2022/08/06 06:18:36;;;;;;;1.90;1.47;;;;;;;21.64;47.91;100052.06;5055680;28;21209;-77
2022/08/06 06:21:14;;;;;;;2.00;1.80;;;;;;;21.49;48.58;100061.66;5057597;28;20449;-77
2022/08/06 06:23:56;;;;;;;1.83;1.73;;;;;;;21.49;48.70;100058.13;5057203;28;20467;-77
2022/08/06 06:26:39;;;;;;;2.13;1.70;;;;;;;21.40;48.80;100058.09;5055781;28;20459;-77
2022/08/06 06:29:15;;;;;;;1.77;1.67;;;;;;;21.34;48.98;100060.53;5055425;28;20537;-77
2022/08/06 06:31:52;;;;;;;1.97;1.77;;;;;;;21.38;48.97;100072.59;5056020;28;21022;-77
2022/08/06 06:34:26;;;;;;;2.00;1.90;;;;;;;21.37;48.90;100068.22;5040107;28;20478;-77
2022/08/06 06:37:13;;;;;;;3.10;2.00;;;;;;;21.34;48.91;100071.22;5057364;28;20476;-76
2022/08/06 06:39:45;;;;;;;4.13;1.93;;;;;;;21.36;49.17;100075.41;5055179;28;20543;-77
2022/08/06 06:42:16;;;;;;;2.30;2.00;;;;;;;21.48;48.64;100076.03;5057573;28;20453;-77
2022/08/06 06:45:00;;;;;;;4.30;1.87;;;;;;;21.63;48.58;100065.59;5055520;28;20524;-77
2022/08/06 06:47:33;;;;;;;3.87;1.83;;;;;;;21.69;48.38;100072.16;5058999;28;21020;-77
2022/08/06 06:50:07;;;;;;;2.57;1.70;;;;;;;21.62;48.40;100063.91;5054665;28;20453;-77
2022/08/06 06:52:39;;;;;;;2.13;1.90;;;;;;;21.58;48.61;100073.25;5053832;28;20563;-77
2022/08/06 06:55:11;;;;;;;1.80;1.70;;;;;;;21.63;48.54;100070.94;5054412;28;20512;-77
2022/08/06 06:57:42;;;;;;;3.23;1.77;;;;;;;21.79;47.88;100065.69;5050767;28;20459;-77
2022/08/06 07:00:09;;;;;;;2.60;1.90;;;;;;;22.50;46.36;100067.16;5056254;28;20456;-77
2022/08/06 07:02:40;;;;;;;2.40;2.05;;;;;;;23.00;45.18;100067.28;5047601;28;20470;-77
2022/08/06 07:05:07;;;;;;;1.90;1.80;;;;;;;24.55;41.59;100056.19;5051340;28;20226;-77
2022/08/06 07:07:38;;;;;;;1.80;1.47;;;;;;;25.82;39.03;100054.59;5057905;28;20471;-77
2022/08/06 07:10:07;;;;;;;2.10;1.60;;;;;;;26.01;38.61;100055.06;5055876;28;20449;-77
2022/08/06 07:12:34;;;;;;;2.20;2.00;;;;;;;25.92;38.81;100058.88;5048354;28;20488;-77
2022/08/06 07:15:06;;;;;;;1.70;1.60;;;;;;;27.05;36.59;100052.09;5043583;28;20889;-77
2022/08/06 07:17:34;;;;;;;2.47;2.00;;;;;;;28.31;34.13;100044.81;5047830;28;20517;-77
2022/08/06 07:20:03;;;;;;;1.57;1.40;;;;;;;29.01;32.75;100050.81;5044375;28;20452;-77
2022/08/06 07:22:29;;;;;;;6.37;2.60;;;;;;;29.67;32.00;100043.75;5056131;28;21118;-77
2022/08/06 07:24:59;;;;;;;2.50;1.50;;;;;;;29.97;30.96;100034.09;5057338;28;20854;-77
2022/08/06 07:27:39;;;;;;;2.83;2.63;;;;;;;30.10;30.64;100044.00;5055229;28;20513;-77
2022/08/06 07:30:06;;;;;;;2.53;1.50;;;;;;;30.41;29.21;100039.75;5061598;28;20463;-78
2022/08/06 07:32:34;;;;;;;2.37;2.17;;;;;;;30.44;29.45;100042.03;5064308;28;20984;-77
2022/08/06 07:35:01;;;;;;;2.67;1.80;;;;;;;30.82;28.63;100044.72;5063303;28;20537;-77
2022/08/06 07:37:29;;;;;;;2.67;1.70;;;;;;;30.92;28.02;100037.97;5045048;28;21005;-77
2022/08/06 07:39:57;;;;;;;4.13;2.30;;;;;;;30.65;28.56;100038.97;5065023;28;20452;-77
2022/08/06 07:42:24;;;;;;;1.83;1.57;;;;;;;30.36;28.41;100039.56;5062918;28;20553;-77
2022/08/06 07:44:53;;;;;;;3.20;2.10;;;;;;;30.03;29.00;100045.94;5060546;28;20830;-77
2022/08/06 07:47:22;;;;;;;2.70;1.90;;;;;;;30.76;27.77;100044.72;5063279;28;20482;-77
2022/08/06 07:49:53;;;;;;;2.80;1.77;;;;;;;31.34;27.32;100036.34;5064740;28;21057;-77
2022/08/06 07:53:55;;;;;;;3.38;2.10;;;;;;;32.08;25.55;100039.16;5098953;27;20493;-76
2022/08/06 07:56:22;;;;;;;3.93;2.00;;;;;;;30.77;26.28;100043.69;5102619;28;20221;-77
2022/08/06 07:58:49;;;;;;;3.77;2.73;;;;;;;29.72;27.76;100047.47;5102186;28;20984;-76
2022/08/06 08:01:14;;;;;;;2.50;2.03;;;;;;;29.15;28.74;100045.44;5100880;28;20513;-79
2022/08/06 08:06:27;;;;;;;2.03;1.90;;;;;;;28.19;30.33;100044.59;5107751;28;20201;-77
2022/08/06 08:09:09;;;;;;;8.10;3.00;;;;;;;28.08;31.06;100053.22;5103780;28;20455;-77
2022/08/06 08:11:40;;;;;;;2.08;1.88;;;;;;;28.12;30.74;100053.69;5101300;28;20495;-78
2022/08/06 08:14:08;;;;;;;3.97;1.70;;;;;;;28.04;30.55;100049.28;5103803;28;20216;-78
2022/08/06 08:16:34;;;;;;;2.43;1.90;;;;;;;27.98;30.93;100061.72;5105238;28;20982;-77
2022/08/06 08:19:00;;;;;;;2.87;2.17;;;;;;;28.07;30.72;100054.28;5100060;27;20463;-77
2022/08/06 08:21:27;;;;;;;5.73;1.83;;;;;;;28.21;30.69;100055.16;5098608;28;20846;-77
2022/08/06 08:23:53;;;;;;;5.10;2.10;;;;;;;28.40;30.70;100054.41;5103081;28;21020;-74
2022/08/06 08:26:19;;;;;;;2.43;1.70;;;;;;;28.30;30.46;100055.81;5098915;28;20486;-75
2022/08/06 08:28:44;;;;;;;2.70;1.60;;;;;;;27.94;31.01;100065.00;5101185;28;21013;-77
2022/08/06 08:31:13;;;;;;;1.60;1.50;;;;;;;27.56;31.73;100059.97;5097653;28;20640;-76
2022/08/06 08:33:39;;;;;;;3.20;2.20;;;;;;;27.15;32.27;100069.59;5102606;28;20217;-75
2022/08/06 08:36:05;;;;;;;2.23;2.03;;;;;;;26.89;32.75;100058.56;5100429;28;20482;-76
2022/08/06 08:38:33;;;;;;;2.83;1.90;;;;;;;26.72;33.22;100057.16;5097159;28;20438;-76
2022/08/06 08:41:11;;;;;;;3.20;2.13;;;;;;;26.64;33.54;100064.34;5097120;28;21040;-76
2022/08/06 08:43:43;;;;;;;2.63;1.90;;;;;;;26.56;33.31;100059.06;5099860;28;20455;-76
2022/08/06 08:46:09;;;;;;;1.77;1.67;;;;;;;26.40;33.13;100064.66;5102475;28;20586;-76
2022/08/06 08:48:36;;;;;;;2.60;1.70;;;;;;;26.18;34.10;100064.59;5102338;28;21021;-76
2022/08/06 08:51:03;;;;;;;4.30;2.13;;;;;;;25.96;34.13;100065.56;5099462;28;20461;-76
2022/08/06 08:53:48;;;;;;;6.20;2.03;;;;;;;25.83;34.42;100061.66;5101270;28;21034;-77
2022/08/06 08:56:16;;;;;;;2.70;1.83;;;;;;;25.64;35.07;100056.81;5099186;28;20593;-77
2022/08/06 08:58:41;;;;;;;3.33;3.03;;;;;;;25.63;34.99;100063.22;5100821;28;20459;-78
2022/08/06 09:01:08;;;;;;;2.00;1.90;;;;;;;25.48;34.92;100065.88;5100815;28;20545;-76
2022/08/06 09:03:39;;;;;;;3.33;2.20;;;;;;;25.59;35.10;100057.34;5088248;28;20909;-76
2022/08/06 09:06:06;;;;;;;1.50;1.40;;;;;;;25.82;34.67;100059.13;5088285;28;20314;-76
2022/08/06 09:08:32;;;;;;;1.97;1.70;;;;;;;25.92;34.29;100072.31;5087230;28;20515;-76
2022/08/06 09:10:59;;;;;;;2.33;2.03;;;;;;;25.91;34.15;100063.44;5088657;28;20543;-77
2022/08/06 09:13:26;;;;;;;1.60;1.50;;;;;;;25.73;34.44;100066.44;5079137;28;20638;-76
2022/08/06 09:15:52;;;;;;;3.30;1.83;;;;;;;25.66;34.65;100070.91;5086139;28;20558;-76
2022/08/06 09:18:19;;;;;;;2.27;1.93;;;;;;;25.72;34.70;100080.94;5086014;28;20467;-76
2022/08/06 09:20:45;;;;;;;3.03;1.50;;;;;;;25.69;34.60;100070.53;5086697;28;20458;-76
2022/08/06 09:23:12;;;;;;;1.90;1.77;;;;;;;25.74;34.60;100072.69;5084114;28;20623;-76
2022/08/06 09:25:43;;;;;;;2.10;2.00;;;;;;;25.85;34.49;100063.34;5087318;28;20233;-76
2022/08/06 09:28:25;;;;;;;4.27;1.60;;;;;;;26.09;34.06;100079.19;5088220;28;20492;-76
2022/08/06 09:31:06;;;;;;;1.73;1.63;;;;;;;26.27;33.57;100070.72;5086598;28;20448;-76
2022/08/06 09:33:36;;;;;;;2.85;2.10;;;;;;;26.34;33.01;100073.50;5080181;28;20504;-76
2022/08/06 09:36:12;;;;;;;4.00;1.83;;;;;;;26.68;32.92;100083.63;5081286;28;20271;-76
2022/08/06 09:38:52;;;;;;;2.33;1.53;;;;;;;26.94;32.36;100085.78;5081916;28;20459;-76
2022/08/06 09:41:20;;;;;;;2.23;2.03;;;;;;;26.89;32.12;100091.75;5088005;28;20447;-76
2022/08/06 09:43:50;;;;;;;1.97;1.50;;;;;;;26.81;32.50;100080.25;5087697;28;20459;-75
2022/08/06 09:46:17;;;;;;;3.33;1.77;;;;;;;26.81;32.69;100082.97;5090026;28;20889;-77
2022/08/06 09:49:03;;;;;;;2.10;1.90;;;;;;;26.61;32.77;100090.84;5090366;28;20948;-76
2022/08/06 09:51:30;;;;;;;2.73;2.10;;;;;;;26.58;32.70;100085.84;5085181;28;20899;-76
2022/08/06 09:53:59;;;;;;;2.20;2.00;;;;;;;26.63;33.12;100089.63;5081375;28;21157;-76
2022/08/06 09:56:25;;;;;;;2.07;1.97;;;;;;;26.57;33.04;100086.84;5087381;28;20853;-77
2022/08/06 09:59:00;;;;;;;2.40;2.20;;;;;;;26.39;32.92;100081.84;5085840;28;20509;-76
2022/08/06 10:01:27;;;;;;;2.70;2.50;;;;;;;26.32;33.45;100086.31;5087756;28;20926;-76
2022/08/06 10:03:55;;;;;;;2.07;1.87;;;;;;;26.45;33.25;100086.47;5078733;28;20533;-76
2022/08/06 10:06:21;;;;;;;1.93;1.83;;;;;;;26.48;33.00;100089.63;5084511;28;20996;-76
2022/08/06 10:08:48;;;;;;;2.10;1.80;;;;;;;26.33;33.49;100083.44;5086216;28;20545;-75
2022/08/06 10:11:14;;;;;;;2.20;2.00;;;;;;;26.30;33.45;100083.78;5085500;28;20247;-77
2022/08/06 10:13:47;;;;;;;2.67;2.37;;;;;;;26.56;33.35;100090.56;5083768;28;20467;-76
2022/08/06 10:16:20;;;;;;;2.27;2.07;;;;;;;26.82;33.15;100093.56;5084099;28;20493;-76
2022/08/06 10:18:47;;;;;;;2.77;1.40;;;;;;;26.97;32.70;100095.34;5085312;28;20512;-76
2022/08/06 10:21:24;;;;;;;2.27;2.07;;;;;;;27.14;32.55;100086.00;5085540;28;20547;-76
2022/08/06 10:23:53;;;;;;;3.03;1.63;;;;;;;27.08;32.00;100086.75;5074509;28;20947;-76
2022/08/06 10:26:27;;;;;;;2.00;1.83;;;;;;;26.89;32.46;100082.84;5084896;28;20558;-76
2022/08/06 10:28:53;;;;;;;2.33;1.93;;;;;;;26.80;32.84;100092.91;5084518;28;20475;-76
2022/08/06 10:31:20;;;;;;;1.93;1.77;;;;;;;26.85;32.92;100090.47;5085851;28;20467;-76
2022/08/06 10:33:55;;;;;;;3.60;2.27;;;;;;;27.14;32.17;100096.78;5082571;28;20464;-76
2022/08/06 10:36:44;;;;;;;2.00;1.87;;;;;;;27.34;31.83;100092.41;5083517;28;20487;-76
2022/08/06 10:39:10;;;;;;;2.40;2.00;;;;;;;27.51;31.30;100086.72;5081703;28;20693;-76
2022/08/06 10:41:40;;;;;;;2.27;2.07;;;;;;;27.53;30.82;100080.09;5085930;28;20478;-77
2022/08/06 10:44:06;;;;;;;4.40;1.87;;;;;;;27.31;31.18;100086.56;5076957;28;20218;-76
2022/08/06 10:46:32;;;;;;;2.40;1.63;;;;;;;27.30;31.76;100083.06;5082941;28;20480;-77
2022/08/06 10:48:58;;;;;;;2.00;1.43;;;;;;;27.35;31.46;100086.00;5079377;28;20304;-76
2022/08/06 10:51:24;;;;;;;2.47;2.27;;;;;;;27.38;31.53;100090.13;5085289;28;20833;-76
2022/08/06 10:53:50;;;;;;;2.43;1.90;;;;;;;27.43;31.08;100085.00;5077323;28;20499;-76
2022/08/06 10:56:17;;;;;;;1.67;1.57;;;;;;;27.49;31.21;100088.78;5071055;28;20302;-76
2022/08/06 10:58:43;;;;;;;2.83;2.03;;;;;;;27.48;31.82;100087.13;5073374;28;20814;-76
2022/08/06 11:01:26;;;;;;;2.00;1.90;;;;;;;27.65;30.79;100069.56;5071425;28;20971;-76
2022/08/06 11:04:16;;;;;;;2.40;2.00;;;;;;;27.76;30.30;100081.69;5082446;28;20210;-76
2022/08/06 11:07:28;;;;;;;1.80;1.70;;;;;;;28.08;30.07;100071.31;5079305;28;20471;-75
2022/08/06 11:10:18;;;;;;;4.80;2.00;;;;;;;28.56;29.86;100069.44;5082183;28;20478;-76
2022/08/06 11:12:58;;;;;;;3.63;2.10;;;;;;;28.40;29.88;100067.09;5086721;28;20854;-76
2022/08/06 11:15:24;;;;;;;2.20;2.00;;;;;;;28.06;30.74;100068.84;5082689;28;20478;-76
2022/08/06 11:18:02;;;;;;;3.17;2.00;;;;;;;27.81;30.71;100060.38;5083414;28;20464;-76
2022/08/06 11:20:33;;;;;;;3.43;2.27;;;;;;;27.70;31.07;100061.72;5081853;28;20499;-76
2022/08/06 11:23:26;;;;;;;2.60;1.97;;;;;;;27.59;31.41;100055.00;5082287;28;20546;-77
2022/08/06 11:26:00;;;;;;;2.70;2.50;;;;;;;27.73;30.88;100057.78;5082528;28;20480;-77
2022/08/06 11:28:29;;;;;;;2.63;2.10;;;;;;;28.07;30.33;100053.44;5081239;28;20983;-76
2022/08/06 11:30:57;;;;;;;1.77;1.67;;;;;;;28.15;30.58;100050.56;5079128;28;21025;-76
2022/08/06 11:33:32;;;;;;;2.87;2.30;;;;;;;28.28;30.66;100050.63;5084258;28;20480;-76
2022/08/06 11:35:57;;;;;;;2.23;2.03;;;;;;;28.47;30.23;100038.25;5085078;28;20493;-77
2022/08/06 11:38:48;;;;;;;2.73;2.53;;;;;;;28.40;30.29;100043.59;5079102;28;20459;-77
2022/08/06 11:41:21;;;;;;;4.23;2.00;;;;;;;28.27;30.59;100045.41;5084104;28;20206;-77
2022/08/06 11:43:48;;;;;;;2.70;1.90;;;;;;;28.05;30.43;100039.31;5079515;28;20558;-76
2022/08/06 11:46:24;;;;;;;2.23;2.00;;;;;;;27.86;31.03;100043.59;5082951;28;20637;-77
2022/08/06 11:48:58;;;;;;;4.87;2.03;;;;;;;27.85;30.70;100040.06;5083647;28;20479;-77